sensor_id;sensor_type;location;lat;lon;timestamp;P1;durP1;ratioP1;P2;durP2;ratioP2
55589;SDS011;41452;42.780;23.116;2022-11-21T00:02:23;15.50;;;8.38;;
55589;SDS011;41452;42.780;23.116;2022-11-21T00:04:48;14.27;;;8.60;;
55589;SDS011;41452;42.780;23.116;2022-11-21T00:07:14;13.15;;;7.95;;
55589;SDS011;41452;42.780;23.116;2022-11-21T00:09:39;11.35;;;6.95;;
55589;SDS011;41452;42.780;23.116;2022-11-21T00:12:05;12.82;;;7.30;;
55589;SDS011;41452;42.780;23.116;2022-11-21T00:14:30;16.75;;;7.70;;
55589;SDS011;41452;42.780;23.116;2022-11-21T00:16:57;11.20;;;6.32;;
55589;SDS011;41452;42.780;23.116;2022-11-21T00:19:23;12.70;;;5.85;;
55589;SDS011;41452;42.780;23.116;2022-11-21T00:21:48;12.23;;;6.50;;
55589;SDS011;41452;42.780;23.116;2022-11-21T00:24:13;11.80;;;5.53;;
55589;SDS011;41452;42.780;23.116;2022-11-21T00:26:39;10.95;;;5.95;;
55589;SDS011;41452;42.780;23.116;2022-11-21T00:29:04;10.13;;;5.32;;
55589;SDS011;41452;42.780;23.116;2022-11-21T00:31:30;11.25;;;5.97;;
55589;SDS011;41452;42.780;23.116;2022-11-21T00:33:55;8.88;;;5.10;;
55589;SDS011;41452;42.780;23.116;2022-11-21T00:36:21;11.85;;;5.68;;
55589;SDS011;41452;42.780;23.116;2022-11-21T00:38:46;8.25;;;4.80;;
55589;SDS011;41452;42.780;23.116;2022-11-21T00:41:11;9.90;;;5.53;;
55589;SDS011;41452;42.780;23.116;2022-11-21T00:43:37;7.88;;;4.88;;
55589;SDS011;41452;42.780;23.116;2022-11-21T00:46:02;8.27;;;4.32;;
55589;SDS011;41452;42.780;23.116;2022-11-21T00:48:28;8.05;;;4.63;;
55589;SDS011;41452;42.780;23.116;2022-11-21T00:50:55;8.75;;;3.97;;
55589;SDS011;41452;42.780;23.116;2022-11-21T00:53:20;8.70;;;4.13;;
55589;SDS011;41452;42.780;23.116;2022-11-21T00:55:46;9.38;;;4.80;;
55589;SDS011;41452;42.780;23.116;2022-11-21T00:58:11;10.25;;;3.80;;
55589;SDS011;41452;42.780;23.116;2022-11-21T01:00:36;6.63;;;3.90;;
55589;SDS011;41452;42.780;23.116;2022-11-21T01:03:02;5.50;;;3.65;;
55589;SDS011;41452;42.780;23.116;2022-11-21T01:05:27;6.55;;;3.40;;
55589;SDS011;41452;42.780;23.116;2022-11-21T01:07:52;7.03;;;3.75;;
55589;SDS011;41452;42.780;23.116;2022-11-21T01:10:18;4.30;;;2.90;;
55589;SDS011;41452;42.780;23.116;2022-11-21T01:12:43;5.68;;;3.35;;
55589;SDS011;41452;42.780;23.116;2022-11-21T01:15:09;5.85;;;2.90;;
55589;SDS011;41452;42.780;23.116;2022-11-21T01:17:34;14.27;;;3.30;;
55589;SDS011;41452;42.780;23.116;2022-11-21T01:20:00;4.65;;;2.95;;
55589;SDS011;41452;42.780;23.116;2022-11-21T01:22:25;7.35;;;3.45;;
55589;SDS011;41452;42.780;23.116;2022-11-21T01:24:51;5.50;;;3.15;;
55589;SDS011;41452;42.780;23.116;2022-11-21T01:27:16;5.07;;;3.10;;
55589;SDS011;41452;42.780;23.116;2022-11-21T01:29:41;6.78;;;2.78;;
55589;SDS011;41452;42.780;23.116;2022-11-21T01:32:07;5.47;;;2.55;;
55589;SDS011;41452;42.780;23.116;2022-11-21T01:34:32;4.47;;;2.83;;
55589;SDS011;41452;42.780;23.116;2022-11-21T01:36:58;4.70;;;2.63;;
55589;SDS011;41452;42.780;23.116;2022-11-21T01:39:23;12.20;;;2.72;;
55589;SDS011;41452;42.780;23.116;2022-11-21T01:41:48;8.30;;;2.63;;
55589;SDS011;41452;42.780;23.116;2022-11-21T01:46:47;4.60;;;2.58;;
55589;SDS011;41452;42.780;23.116;2022-11-21T01:49:21;4.72;;;3.00;;
55589;SDS011;41452;42.780;23.116;2022-11-21T01:52:00;4.80;;;3.00;;
55589;SDS011;41452;42.780;23.116;2022-11-21T01:54:32;6.38;;;2.97;;
55589;SDS011;41452;42.780;23.116;2022-11-21T02:02:53;6.25;;;3.58;;
55589;SDS011;41452;42.780;23.116;2022-11-21T02:05:25;5.82;;;3.38;;
55589;SDS011;41452;42.780;23.116;2022-11-21T02:07:56;6.25;;;3.72;;
55589;SDS011;41452;42.780;23.116;2022-11-21T02:10:26;6.18;;;3.50;;
55589;SDS011;41452;42.780;23.116;2022-11-21T02:12:52;11.40;;;3.40;;
55589;SDS011;41452;42.780;23.116;2022-11-21T02:15:24;6.43;;;3.47;;
55589;SDS011;41452;42.780;23.116;2022-11-21T02:17:51;8.93;;;4.00;;
55589;SDS011;41452;42.780;23.116;2022-11-21T02:20:18;8.05;;;4.30;;
55589;SDS011;41452;42.780;23.116;2022-11-21T02:25:35;10.88;;;4.53;;
55589;SDS011;41452;42.780;23.116;2022-11-21T02:28:03;12.90;;;5.55;;
55589;SDS011;41452;42.780;23.116;2022-11-21T02:30:31;7.68;;;3.72;;
55589;SDS011;41452;42.780;23.116;2022-11-21T02:33:00;4.70;;;2.90;;
55589;SDS011;41452;42.780;23.116;2022-11-21T02:35:26;6.93;;;2.88;;
55589;SDS011;41452;42.780;23.116;2022-11-21T02:37:58;5.45;;;3.38;;
55589;SDS011;41452;42.780;23.116;2022-11-21T02:40:28;4.70;;;2.72;;
55589;SDS011;41452;42.780;23.116;2022-11-21T02:43:00;6.25;;;3.92;;
55589;SDS011;41452;42.780;23.116;2022-11-21T02:48:01;4.95;;;3.22;;
55589;SDS011;41452;42.780;23.116;2022-11-21T02:50:27;6.18;;;3.83;;
55589;SDS011;41452;42.780;23.116;2022-11-21T02:53:00;6.72;;;4.03;;
55589;SDS011;41452;42.780;23.116;2022-11-21T02:55:26;9.38;;;4.88;;
55589;SDS011;41452;42.780;23.116;2022-11-21T02:57:52;9.27;;;5.45;;
55589;SDS011;41452;42.780;23.116;2022-11-21T03:00:18;10.32;;;5.65;;
55589;SDS011;41452;42.780;23.116;2022-11-21T03:02:44;8.45;;;5.65;;
55589;SDS011;41452;42.780;23.116;2022-11-21T03:05:12;10.60;;;6.07;;
55589;SDS011;41452;42.780;23.116;2022-11-21T03:07:39;12.85;;;6.75;;
55589;SDS011;41452;42.780;23.116;2022-11-21T03:10:04;30.15;;;16.80;;
55589;SDS011;41452;42.780;23.116;2022-11-21T03:12:30;11.82;;;8.13;;
55589;SDS011;41452;42.780;23.116;2022-11-21T03:14:55;9.95;;;6.40;;
55589;SDS011;41452;42.780;23.116;2022-11-21T03:17:21;9.30;;;5.65;;
55589;SDS011;41452;42.780;23.116;2022-11-21T03:19:46;7.60;;;4.40;;
55589;SDS011;41452;42.780;23.116;2022-11-21T03:22:12;8.73;;;4.82;;
55589;SDS011;41452;42.780;23.116;2022-11-21T03:24:39;7.13;;;4.50;;
55589;SDS011;41452;42.780;23.116;2022-11-21T03:27:04;11.23;;;4.07;;
55589;SDS011;41452;42.780;23.116;2022-11-21T03:29:29;6.75;;;4.28;;
55589;SDS011;41452;42.780;23.116;2022-11-21T03:31:55;6.53;;;4.05;;
55589;SDS011;41452;42.780;23.116;2022-11-21T03:34:20;6.55;;;4.00;;
55589;SDS011;41452;42.780;23.116;2022-11-21T03:36:46;5.15;;;3.35;;
55589;SDS011;41452;42.780;23.116;2022-11-21T03:39:11;8.02;;;3.90;;
55589;SDS011;41452;42.780;23.116;2022-11-21T03:41:36;17.98;;;8.90;;
55589;SDS011;41452;42.780;23.116;2022-11-21T03:44:05;11.68;;;5.00;;
55589;SDS011;41452;42.780;23.116;2022-11-21T03:46:34;13.27;;;4.18;;
55589;SDS011;41452;42.780;23.116;2022-11-21T03:49:01;4.57;;;2.70;;
55589;SDS011;41452;42.780;23.116;2022-11-21T03:51:27;4.78;;;2.08;;
55589;SDS011;41452;42.780;23.116;2022-11-21T03:53:52;3.58;;;1.63;;
55589;SDS011;41452;42.780;23.116;2022-11-21T03:56:18;2.50;;;1.15;;
55589;SDS011;41452;42.780;23.116;2022-11-21T03:58:43;2.55;;;1.40;;
55589;SDS011;41452;42.780;23.116;2022-11-21T04:01:09;2.13;;;1.30;;
55589;SDS011;41452;42.780;23.116;2022-11-21T04:03:37;1.80;;;1.00;;
55589;SDS011;41452;42.780;23.116;2022-11-21T04:06:09;0.65;;;0.60;;
55589;SDS011;41452;42.780;23.116;2022-11-21T04:08:36;0.50;;;0.50;;
55589;SDS011;41452;42.780;23.116;2022-11-21T04:11:02;0.65;;;0.50;;
55589;SDS011;41452;42.780;23.116;2022-11-21T04:13:27;1.30;;;0.50;;
55589;SDS011;41452;42.780;23.116;2022-11-21T04:15:53;1.30;;;0.60;;
55589;SDS011;41452;42.780;23.116;2022-11-21T04:18:18;2.22;;;0.40;;
55589;SDS011;41452;42.780;23.116;2022-11-21T04:20:44;1.38;;;0.60;;
55589;SDS011;41452;42.780;23.116;2022-11-21T04:23:09;0.77;;;0.30;;
55589;SDS011;41452;42.780;23.116;2022-11-21T04:25:35;2.63;;;1.00;;
55589;SDS011;41452;42.780;23.116;2022-11-21T04:28:01;1.02;;;0.60;;
55589;SDS011;41452;42.780;23.116;2022-11-21T04:30:28;3.38;;;1.20;;
55589;SDS011;41452;42.780;23.116;2022-11-21T04:32:55;1.50;;;0.82;;
55589;SDS011;41452;42.780;23.116;2022-11-21T04:35:21;0.43;;;0.40;;
55589;SDS011;41452;42.780;23.116;2022-11-21T04:37:48;1.27;;;0.90;;
55589;SDS011;41452;42.780;23.116;2022-11-21T04:40:13;1.55;;;0.60;;
55589;SDS011;41452;42.780;23.116;2022-11-21T04:42:40;1.25;;;0.60;;
55589;SDS011;41452;42.780;23.116;2022-11-21T04:45:06;0.50;;;0.40;;
55589;SDS011;41452;42.780;23.116;2022-11-21T04:47:35;0.43;;;0.40;;
55589;SDS011;41452;42.780;23.116;2022-11-21T04:50:01;0.80;;;0.40;;
55589;SDS011;41452;42.780;23.116;2022-11-21T04:52:26;1.85;;;0.40;;
55589;SDS011;41452;42.780;23.116;2022-11-21T04:54:51;0.30;;;0.30;;
55589;SDS011;41452;42.780;23.116;2022-11-21T04:57:17;0.82;;;0.40;;
55589;SDS011;41452;42.780;23.116;2022-11-21T04:59:42;3.40;;;0.50;;
55589;SDS011;41452;42.780;23.116;2022-11-21T05:02:08;1.40;;;0.57;;
55589;SDS011;41452;42.780;23.116;2022-11-21T05:04:33;0.30;;;0.30;;
55589;SDS011;41452;42.780;23.116;2022-11-21T05:06:59;0.90;;;0.77;;
55589;SDS011;41452;42.780;23.116;2022-11-21T05:09:24;0.85;;;0.40;;
55589;SDS011;41452;42.780;23.116;2022-11-21T05:11:49;0.80;;;0.55;;
55589;SDS011;41452;42.780;23.116;2022-11-21T05:14:33;1.17;;;0.50;;
55589;SDS011;41452;42.780;23.116;2022-11-21T05:16:59;0.73;;;0.40;;
55589;SDS011;41452;42.780;23.116;2022-11-21T05:19:24;0.25;;;0.25;;
55589;SDS011;41452;42.780;23.116;2022-11-21T05:21:49;0.50;;;0.43;;
55589;SDS011;41452;42.780;23.116;2022-11-21T05:24:15;0.32;;;0.30;;
55589;SDS011;41452;42.780;23.116;2022-11-21T05:26:40;1.38;;;0.70;;
55589;SDS011;41452;42.780;23.116;2022-11-21T05:29:05;1.73;;;0.63;;
55589;SDS011;41452;42.780;23.116;2022-11-21T05:31:31;1.20;;;0.70;;
55589;SDS011;41452;42.780;23.116;2022-11-21T05:33:56;0.30;;;0.30;;
55589;SDS011;41452;42.780;23.116;2022-11-21T05:36:22;0.75;;;0.52;;
55589;SDS011;41452;42.780;23.116;2022-11-21T05:38:47;1.38;;;0.50;;
55589;SDS011;41452;42.780;23.116;2022-11-21T05:41:12;0.60;;;0.35;;
55589;SDS011;41452;42.780;23.116;2022-11-21T05:43:38;0.35;;;0.30;;
55589;SDS011;41452;42.780;23.116;2022-11-21T05:46:14;0.47;;;0.45;;
55589;SDS011;41452;42.780;23.116;2022-11-21T05:48:44;0.88;;;0.65;;
55589;SDS011;41452;42.780;23.116;2022-11-21T05:51:11;1.75;;;0.45;;
55589;SDS011;41452;42.780;23.116;2022-11-21T05:53:37;1.95;;;1.00;;
55589;SDS011;41452;42.780;23.116;2022-11-21T05:56:03;1.38;;;1.00;;
55589;SDS011;41452;42.780;23.116;2022-11-21T05:58:30;1.27;;;0.82;;
55589;SDS011;41452;42.780;23.116;2022-11-21T06:00:56;0.82;;;0.63;;
55589;SDS011;41452;42.780;23.116;2022-11-21T06:03:22;2.15;;;1.10;;
55589;SDS011;41452;42.780;23.116;2022-11-21T06:06:12;0.60;;;0.60;;
55589;SDS011;41452;42.780;23.116;2022-11-21T06:08:45;1.80;;;1.27;;
55589;SDS011;41452;42.780;23.116;2022-11-21T06:11:11;1.58;;;1.23;;
55589;SDS011;41452;42.780;23.116;2022-11-21T06:13:38;3.33;;;1.50;;
55589;SDS011;41452;42.780;23.116;2022-11-21T06:16:06;2.67;;;1.00;;
55589;SDS011;41452;42.780;23.116;2022-11-21T06:18:34;6.07;;;2.72;;
55589;SDS011;41452;42.780;23.116;2022-11-21T06:21:05;3.22;;;1.80;;
55589;SDS011;41452;42.780;23.116;2022-11-21T06:23:32;10.38;;;4.40;;
55589;SDS011;41452;42.780;23.116;2022-11-21T06:25:58;5.32;;;1.30;;
55589;SDS011;41452;42.780;23.116;2022-11-21T06:28:25;4.45;;;1.60;;
55589;SDS011;41452;42.780;23.116;2022-11-21T06:30:53;3.17;;;1.10;;
55589;SDS011;41452;42.780;23.116;2022-11-21T06:33:19;1.40;;;0.90;;
55589;SDS011;41452;42.780;23.116;2022-11-21T06:35:44;1.67;;;0.77;;
55589;SDS011;41452;42.780;23.116;2022-11-21T06:38:10;2.67;;;1.40;;
55589;SDS011;41452;42.780;23.116;2022-11-21T06:40:37;2.40;;;1.20;;
55589;SDS011;41452;42.780;23.116;2022-11-21T06:43:03;2.60;;;1.25;;
55589;SDS011;41452;42.780;23.116;2022-11-21T06:45:28;2.15;;;1.40;;
55589;SDS011;41452;42.780;23.116;2022-11-21T06:47:54;1.77;;;0.93;;
55589;SDS011;41452;42.780;23.116;2022-11-21T06:50:19;2.53;;;1.40;;
55589;SDS011;41452;42.780;23.116;2022-11-21T06:52:45;1.08;;;0.77;;
55589;SDS011;41452;42.780;23.116;2022-11-21T06:55:10;1.40;;;0.85;;
55589;SDS011;41452;42.780;23.116;2022-11-21T06:57:36;1.23;;;0.80;;
55589;SDS011;41452;42.780;23.116;2022-11-21T07:00:02;1.13;;;0.80;;
55589;SDS011;41452;42.780;23.116;2022-11-21T07:02:28;1.63;;;0.65;;
55589;SDS011;41452;42.780;23.116;2022-11-21T07:04:53;3.72;;;1.17;;
55589;SDS011;41452;42.780;23.116;2022-11-21T07:07:18;1.27;;;1.08;;
55589;SDS011;41452;42.780;23.116;2022-11-21T07:09:44;3.15;;;1.33;;
55589;SDS011;41452;42.780;23.116;2022-11-21T07:12:11;3.90;;;2.28;;
55589;SDS011;41452;42.780;23.116;2022-11-21T07:14:55;3.08;;;1.50;;
55589;SDS011;41452;42.780;23.116;2022-11-21T07:17:20;1.98;;;1.15;;
55589;SDS011;41452;42.780;23.116;2022-11-21T07:19:45;5.50;;;1.88;;
55589;SDS011;41452;42.780;23.116;2022-11-21T07:22:11;2.92;;;1.23;;
55589;SDS011;41452;42.780;23.116;2022-11-21T07:24:36;4.32;;;1.90;;
55589;SDS011;41452;42.780;23.116;2022-11-21T07:27:02;1.77;;;1.27;;
55589;SDS011;41452;42.780;23.116;2022-11-21T07:29:27;4.10;;;1.83;;
55589;SDS011;41452;42.780;23.116;2022-11-21T07:31:53;3.28;;;1.38;;
55589;SDS011;41452;42.780;23.116;2022-11-21T07:34:18;2.80;;;1.67;;
55589;SDS011;41452;42.780;23.116;2022-11-21T07:36:44;3.45;;;1.83;;
55589;SDS011;41452;42.780;23.116;2022-11-21T07:39:09;2.88;;;1.58;;
55589;SDS011;41452;42.780;23.116;2022-11-21T07:41:35;4.85;;;1.10;;
55589;SDS011;41452;42.780;23.116;2022-11-21T07:44:00;2.58;;;1.40;;
55589;SDS011;41452;42.780;23.116;2022-11-21T07:46:25;1.38;;;1.02;;
55589;SDS011;41452;42.780;23.116;2022-11-21T07:48:51;2.20;;;1.10;;
55589;SDS011;41452;42.780;23.116;2022-11-21T07:51:16;5.20;;;1.27;;
55589;SDS011;41452;42.780;23.116;2022-11-21T07:53:42;1.13;;;0.77;;
55589;SDS011;41452;42.780;23.116;2022-11-21T07:56:07;2.72;;;1.00;;
55589;SDS011;41452;42.780;23.116;2022-11-21T07:58:33;1.20;;;0.63;;
55589;SDS011;41452;42.780;23.116;2022-11-21T08:01:02;2.25;;;1.00;;
55589;SDS011;41452;42.780;23.116;2022-11-21T08:03:29;1.45;;;0.90;;
55589;SDS011;41452;42.780;23.116;2022-11-21T08:05:55;3.30;;;0.90;;
55589;SDS011;41452;42.780;23.116;2022-11-21T08:08:20;2.70;;;1.50;;
55589;SDS011;41452;42.780;23.116;2022-11-21T08:10:45;1.13;;;0.90;;
55589;SDS011;41452;42.780;23.116;2022-11-21T08:13:11;3.00;;;1.48;;
55589;SDS011;41452;42.780;23.116;2022-11-21T08:15:37;1.00;;;0.70;;
55589;SDS011;41452;42.780;23.116;2022-11-21T08:18:07;1.13;;;1.00;;
55589;SDS011;41452;42.780;23.116;2022-11-21T08:20:37;0.73;;;0.70;;
55589;SDS011;41452;42.780;23.116;2022-11-21T08:23:03;2.60;;;1.10;;
55589;SDS011;41452;42.780;23.116;2022-11-21T08:25:30;2.08;;;0.90;;
55589;SDS011;41452;42.780;23.116;2022-11-21T08:27:55;1.85;;;1.10;;
55589;SDS011;41452;42.780;23.116;2022-11-21T08:30:21;0.77;;;0.70;;
55589;SDS011;41452;42.780;23.116;2022-11-21T08:32:47;0.63;;;0.60;;
55589;SDS011;41452;42.780;23.116;2022-11-21T08:35:12;1.88;;;1.00;;
55589;SDS011;41452;42.780;23.116;2022-11-21T08:37:37;0.88;;;0.77;;
55589;SDS011;41452;42.780;23.116;2022-11-21T08:40:03;1.15;;;1.00;;
55589;SDS011;41452;42.780;23.116;2022-11-21T08:42:28;1.27;;;0.88;;
55589;SDS011;41452;42.780;23.116;2022-11-21T08:44:54;4.00;;;0.95;;
55589;SDS011;41452;42.780;23.116;2022-11-21T08:47:19;0.98;;;0.70;;
55589;SDS011;41452;42.780;23.116;2022-11-21T08:49:45;1.08;;;0.93;;
55589;SDS011;41452;42.780;23.116;2022-11-21T08:52:12;0.95;;;0.77;;
55589;SDS011;41452;42.780;23.116;2022-11-21T08:54:37;1.38;;;1.10;;
55589;SDS011;41452;42.780;23.116;2022-11-21T08:57:03;0.98;;;0.60;;
55589;SDS011;41452;42.780;23.116;2022-11-21T08:59:28;0.90;;;0.70;;
55589;SDS011;41452;42.780;23.116;2022-11-21T09:01:53;1.38;;;0.70;;
55589;SDS011;41452;42.780;23.116;2022-11-21T09:04:19;1.27;;;0.98;;
55589;SDS011;41452;42.780;23.116;2022-11-21T09:06:44;0.60;;;0.60;;
55589;SDS011;41452;42.780;23.116;2022-11-21T09:09:10;0.90;;;0.77;;
55589;SDS011;41452;42.780;23.116;2022-11-21T09:11:35;0.70;;;0.60;;
55589;SDS011;41452;42.780;23.116;2022-11-21T09:14:01;1.08;;;0.63;;
55589;SDS011;41452;42.780;23.116;2022-11-21T09:16:46;3.17;;;1.17;;
55589;SDS011;41452;42.780;23.116;2022-11-21T09:19:30;2.33;;;1.02;;
55589;SDS011;41452;42.780;23.116;2022-11-21T09:21:55;0.93;;;0.70;;
55589;SDS011;41452;42.780;23.116;2022-11-21T09:24:21;4.18;;;1.88;;
55589;SDS011;41452;42.780;23.116;2022-11-21T09:26:46;2.88;;;1.85;;
55589;SDS011;41452;42.780;23.116;2022-11-21T09:29:12;2.90;;;1.63;;
55589;SDS011;41452;42.780;23.116;2022-11-21T09:31:39;1.88;;;1.27;;
55589;SDS011;41452;42.780;23.116;2022-11-21T09:34:05;1.40;;;1.00;;
55589;SDS011;41452;42.780;23.116;2022-11-21T09:36:31;1.38;;;0.98;;
55589;SDS011;41452;42.780;23.116;2022-11-21T09:38:57;1.30;;;0.90;;
55589;SDS011;41452;42.780;23.116;2022-11-21T09:41:27;2.10;;;1.10;;
55589;SDS011;41452;42.780;23.116;2022-11-21T09:49:46;2.78;;;1.73;;
55589;SDS011;41452;42.780;23.116;2022-11-21T09:52:16;2.65;;;1.40;;
55589;SDS011;41452;42.780;23.116;2022-11-21T09:54:47;5.78;;;1.48;;
55589;SDS011;41452;42.780;23.116;2022-11-21T09:57:17;1.85;;;0.95;;
55589;SDS011;41452;42.780;23.116;2022-11-21T09:59:46;2.30;;;1.38;;
55589;SDS011;41452;42.780;23.116;2022-11-21T10:02:16;4.95;;;2.30;;
55589;SDS011;41452;42.780;23.116;2022-11-21T10:04:47;3.45;;;1.70;;
55589;SDS011;41452;42.780;23.116;2022-11-21T10:29:27;1.48;;;0.98;;
55589;SDS011;41452;42.780;23.116;2022-11-21T10:32:02;1.40;;;1.17;;
55589;SDS011;41452;42.780;23.116;2022-11-21T10:34:37;2.45;;;1.52;;
55589;SDS011;41452;42.780;23.116;2022-11-21T10:37:09;5.07;;;1.30;;
55589;SDS011;41452;42.780;23.116;2022-11-21T10:39:42;1.45;;;1.00;;
55589;SDS011;41452;42.780;23.116;2022-11-21T10:44:46;2.85;;;1.40;;
55589;SDS011;41452;42.780;23.116;2022-11-21T10:47:30;2.47;;;1.55;;
55589;SDS011;41452;42.780;23.116;2022-11-21T10:49:59;1.25;;;0.70;;
55589;SDS011;41452;42.780;23.116;2022-11-21T10:56:10;1.60;;;1.08;;
55589;SDS011;41452;42.780;23.116;2022-11-21T10:58:39;2.88;;;1.17;;
55589;SDS011;41452;42.780;23.116;2022-11-21T11:01:25;2.15;;;1.27;;
55589;SDS011;41452;42.780;23.116;2022-11-21T11:06:28;3.25;;;1.10;;
55589;SDS011;41452;42.780;23.116;2022-11-21T11:08:54;2.38;;;1.20;;
55589;SDS011;41452;42.780;23.116;2022-11-21T11:11:20;2.25;;;1.67;;
55589;SDS011;41452;42.780;23.116;2022-11-21T11:14:11;2.72;;;1.77;;
55589;SDS011;41452;42.780;23.116;2022-11-21T11:16:37;1.85;;;1.15;;
55589;SDS011;41452;42.780;23.116;2022-11-21T11:26:48;1.70;;;1.10;;
55589;SDS011;41452;42.780;23.116;2022-11-21T11:29:20;2.97;;;1.88;;
55589;SDS011;41452;42.780;23.116;2022-11-21T11:34:38;0.77;;;0.60;;
55589;SDS011;41452;42.780;23.116;2022-11-21T11:37:37;0.57;;;0.57;;
55589;SDS011;41452;42.780;23.116;2022-11-21T11:40:20;2.10;;;0.80;;
55589;SDS011;41452;42.780;23.116;2022-11-21T11:46:23;1.02;;;0.85;;
55589;SDS011;41452;42.780;23.116;2022-11-21T11:52:23;1.48;;;1.20;;
55589;SDS011;41452;42.780;23.116;2022-11-21T11:55:01;2.35;;;1.40;;
55589;SDS011;41452;42.780;23.116;2022-11-21T11:57:30;6.13;;;0.98;;
55589;SDS011;41452;42.780;23.116;2022-11-21T12:00:04;2.40;;;1.30;;
55589;SDS011;41452;42.780;23.116;2022-11-21T12:05:26;1.33;;;1.03;;
55589;SDS011;41452;42.780;23.116;2022-11-21T12:08:12;1.73;;;1.08;;
55589;SDS011;41452;42.780;23.116;2022-11-21T12:10:44;0.60;;;0.60;;
55589;SDS011;41452;42.780;23.116;2022-11-21T12:13:53;2.60;;;0.95;;
55589;SDS011;41452;42.780;23.116;2022-11-21T12:16:21;0.80;;;0.70;;
55589;SDS011;41452;42.780;23.116;2022-11-21T12:19:01;2.65;;;1.42;;
55589;SDS011;41452;42.780;23.116;2022-11-21T12:21:31;1.58;;;1.00;;
55589;SDS011;41452;42.780;23.116;2022-11-21T12:23:57;1.67;;;1.20;;
55589;SDS011;41452;42.780;23.116;2022-11-21T12:26:28;1.38;;;0.88;;
55589;SDS011;41452;42.780;23.116;2022-11-21T12:32:33;2.03;;;1.23;;
55589;SDS011;41452;42.780;23.116;2022-11-21T12:38:39;2.72;;;1.60;;
55589;SDS011;41452;42.780;23.116;2022-11-21T12:44:03;4.13;;;2.33;;
55589;SDS011;41452;42.780;23.116;2022-11-21T12:52:30;3.95;;;2.10;;
55589;SDS011;41452;42.780;23.116;2022-11-21T12:58:04;2.25;;;1.50;;
55589;SDS011;41452;42.780;23.116;2022-11-21T13:03:27;5.25;;;3.17;;
55589;SDS011;41452;42.780;23.116;2022-11-21T13:06:02;3.10;;;1.63;;
55589;SDS011;41452;42.780;23.116;2022-11-21T13:08:32;2.63;;;1.80;;
55589;SDS011;41452;42.780;23.116;2022-11-21T13:11:02;5.65;;;2.90;;
55589;SDS011;41452;42.780;23.116;2022-11-21T13:13:50;6.10;;;3.63;;
55589;SDS011;41452;42.780;23.116;2022-11-21T13:16:27;2.63;;;1.77;;
55589;SDS011;41452;42.780;23.116;2022-11-21T13:19:50;3.60;;;1.77;;
55589;SDS011;41452;42.780;23.116;2022-11-21T13:21:52;3.00;;;1.90;;
55589;SDS011;41452;42.780;23.116;2022-11-21T13:27:25;5.85;;;3.20;;
55589;SDS011;41452;42.780;23.116;2022-11-21T13:32:38;4.95;;;1.90;;
55589;SDS011;41452;42.780;23.116;2022-11-21T13:40:37;9.50;;;5.75;;
55589;SDS011;41452;42.780;23.116;2022-11-21T13:43:24;10.45;;;5.68;;
55589;SDS011;41452;42.780;23.116;2022-11-21T13:45:51;6.68;;;4.40;;
55589;SDS011;41452;42.780;23.116;2022-11-21T14:01:46;6.68;;;2.97;;
55589;SDS011;41452;42.780;23.116;2022-11-21T14:09:51;6.10;;;3.88;;
55589;SDS011;41452;42.780;23.116;2022-11-21T14:12:19;7.72;;;4.93;;
55589;SDS011;41452;42.780;23.116;2022-11-21T14:15:07;3.92;;;2.83;;
55589;SDS011;41452;42.780;23.116;2022-11-21T14:17:47;4.05;;;2.65;;
55589;SDS011;41452;42.780;23.116;2022-11-21T14:20:17;8.00;;;5.40;;
55589;SDS011;41452;42.780;23.116;2022-11-21T14:23:03;10.23;;;6.47;;
55589;SDS011;41452;42.780;23.116;2022-11-21T14:28:05;20.55;;;12.30;;
55589;SDS011;41452;42.780;23.116;2022-11-21T14:30:36;14.63;;;9.15;;
55589;SDS011;41452;42.780;23.116;2022-11-21T14:33:25;4.43;;;2.80;;
55589;SDS011;41452;42.780;23.116;2022-11-21T14:38:39;12.07;;;5.43;;
55589;SDS011;41452;42.780;23.116;2022-11-21T14:46:22;6.88;;;3.33;;
55589;SDS011;41452;42.780;23.116;2022-11-21T14:48:48;6.80;;;4.18;;
55589;SDS011;41452;42.780;23.116;2022-11-21T14:51:14;5.55;;;3.63;;
55589;SDS011;41452;42.780;23.116;2022-11-21T14:53:41;5.13;;;3.03;;
55589;SDS011;41452;42.780;23.116;2022-11-21T14:56:18;6.50;;;3.97;;
55589;SDS011;41452;42.780;23.116;2022-11-21T14:58:46;4.35;;;2.83;;
55589;SDS011;41452;42.780;23.116;2022-11-21T15:01:20;5.82;;;3.10;;
55589;SDS011;41452;42.780;23.116;2022-11-21T15:03:57;9.00;;;5.40;;
55589;SDS011;41452;42.780;23.116;2022-11-21T15:06:27;7.72;;;3.80;;
55589;SDS011;41452;42.780;23.116;2022-11-21T15:08:57;8.50;;;4.13;;
55589;SDS011;41452;42.780;23.116;2022-11-21T15:12:05;14.90;;;5.95;;
55589;SDS011;41452;42.780;23.116;2022-11-21T15:14:18;14.50;;;8.60;;
55589;SDS011;41452;42.780;23.116;2022-11-21T15:16:45;9.15;;;5.25;;
55589;SDS011;41452;42.780;23.116;2022-11-21T15:19:17;9.05;;;5.95;;
55589;SDS011;41452;42.780;23.116;2022-11-21T15:21:52;11.05;;;5.07;;
55589;SDS011;41452;42.780;23.116;2022-11-21T15:26:52;5.20;;;3.90;;
55589;SDS011;41452;42.780;23.116;2022-11-21T15:29:18;5.47;;;3.58;;
55589;SDS011;41452;42.780;23.116;2022-11-21T15:32:09;6.75;;;3.95;;
55589;SDS011;41452;42.780;23.116;2022-11-21T15:34:36;6.03;;;3.58;;
55589;SDS011;41452;42.780;23.116;2022-11-21T15:37:13;5.28;;;2.70;;
55589;SDS011;41452;42.780;23.116;2022-11-21T15:39:44;10.48;;;4.78;;
55589;SDS011;41452;42.780;23.116;2022-11-21T15:44:56;8.13;;;4.43;;
55589;SDS011;41452;42.780;23.116;2022-11-21T15:47:45;8.70;;;4.53;;
55589;SDS011;41452;42.780;23.116;2022-11-21T15:50:11;7.72;;;4.70;;
55589;SDS011;41452;42.780;23.116;2022-11-21T15:52:46;18.30;;;6.78;;
55589;SDS011;41452;42.780;23.116;2022-11-21T15:55:16;6.20;;;3.20;;
55589;SDS011;41452;42.780;23.116;2022-11-21T15:57:43;16.55;;;8.40;;
55589;SDS011;41452;42.780;23.116;2022-11-21T16:00:09;12.45;;;6.15;;
55589;SDS011;41452;42.780;23.116;2022-11-21T16:02:35;17.75;;;8.00;;
55589;SDS011;41452;42.780;23.116;2022-11-21T16:05:01;23.48;;;8.48;;
55589;SDS011;41452;42.780;23.116;2022-11-21T16:07:26;24.75;;;8.77;;
55589;SDS011;41452;42.780;23.116;2022-11-21T16:09:51;7.28;;;4.75;;
55589;SDS011;41452;42.780;23.116;2022-11-21T16:12:19;5.78;;;3.88;;
55589;SDS011;41452;42.780;23.116;2022-11-21T16:14:44;12.80;;;5.60;;
55589;SDS011;41452;42.780;23.116;2022-11-21T16:17:10;7.40;;;3.00;;
55589;SDS011;41452;42.780;23.116;2022-11-21T16:19:35;9.10;;;4.43;;
55589;SDS011;41452;42.780;23.116;2022-11-21T16:22:00;9.38;;;4.22;;
55589;SDS011;41452;42.780;23.116;2022-11-21T16:24:26;10.32;;;4.85;;
55589;SDS011;41452;42.780;23.116;2022-11-21T16:26:51;23.67;;;6.07;;
55589;SDS011;41452;42.780;23.116;2022-11-21T16:29:19;8.15;;;5.20;;
55589;SDS011;41452;42.780;23.116;2022-11-21T16:31:45;13.95;;;4.97;;
55589;SDS011;41452;42.780;23.116;2022-11-21T16:34:10;5.30;;;2.88;;
55589;SDS011;41452;42.780;23.116;2022-11-21T16:36:36;6.68;;;3.17;;
55589;SDS011;41452;42.780;23.116;2022-11-21T16:39:01;9.35;;;5.32;;
55589;SDS011;41452;42.780;23.116;2022-11-21T16:41:26;5.85;;;3.58;;
55589;SDS011;41452;42.780;23.116;2022-11-21T16:43:52;8.60;;;3.97;;
55589;SDS011;41452;42.780;23.116;2022-11-21T16:46:20;11.95;;;5.60;;
55589;SDS011;41452;42.780;23.116;2022-11-21T16:48:47;3.75;;;2.47;;
55589;SDS011;41452;42.780;23.116;2022-11-21T16:51:17;7.32;;;4.30;;
55589;SDS011;41452;42.780;23.116;2022-11-21T16:53:44;9.48;;;5.93;;
55589;SDS011;41452;42.780;23.116;2022-11-21T16:56:10;23.27;;;9.50;;
55589;SDS011;41452;42.780;23.116;2022-11-21T16:58:36;42.72;;;12.40;;
55589;SDS011;41452;42.780;23.116;2022-11-21T17:01:07;13.90;;;6.18;;